Sibulan Airport
RPVD : rendu visible

Aérodrome :











RETROUVEZ-NOUS SUR...

 
LOGIN :

S'inscrire | Disclaimer

   EN    FR    IT 

 









Légende :    VFR   VFR Marginal   IFR   IFR Intensif   IFR Très Intensif
Visi : 
Plafond : 
>= 8 km
>= 3000ft
5 à 8 km
1000 à 3000 ft
1500m à 5 km
500 à 1000 ft
800 à 1500m
200 à 500 ft
< 800m
< 200 ft
Symboles :   Orages  Brouillard  Fortes neiges  Fortes précipitations  Vent > 20 kt






- Altitude de l'aérodrome : 15 ft
- Code IATA : DGT


RPVD - Sibulan

DERNIER METAR :
  • 280600Z 04008KT 8000 VCSH SCT014 BKN070 28/24 Q1009 RMK A2980 VCSH NW

METARs EXPIRÉS :
  • 280500Z 04014KT 8000 SCT014 BKN070 29/24 Q1010 RMK A2983
  • 280400Z 04014KT 7000 VCSH SCT014 BKN070 27/24 Q1011 RMK A2985 VCSH NW

TAF TAF RPVD
Valide du 28 à 06h jusqu'au 29 à 06h UTC


280500Z 2806/2906 36008KT 9999 FEW015 BKN220
TEMPO 2806/2812 07014KT 9000 -SHRA SCT014 BKN070



MET'MAP, la Météo Aéronautique d'un coup d'oeil ! - Copyright ORBIFLY Décembre 2007 - Disclaimer

ORBIFLY MET'MAP TEAM :

Programmation & Développement : Alexandra Zaïnal
Sur une idée originale de : Baudouin d'Aumeries
Assistance à la programmation : Marc-Olivier Méhu
Soutien technique & logistique : Manuel Goepfert

Contact : metmap@orbifly.com




SOURCES & CREDITS :

   NOAA       Earth
Advisory